Aviation Digital Data Service (ADDS)

Output produced by METARs form (1826 UTC 16 August 2018)
found at http://www.aviationweather.gov/adds/metars/
 
TAF SVBC 161600Z 1618/1718 36006KT 9999 FEW016 TX35/17Z TN23/09Z 
     BECMG 1620/1700 36007KT 9999 BKN016 SCT010
       
TAF SVMI 161600Z 1618/1718 07010KT 9999 SCT016 TX33/18Z TN26/08Z 
     BECMG 1620/1700 09007KT 9999 SCT016
       
TAF SVMC 161600Z 1618/1718 07002KT 9999 FEW016 SCT013 TX33/18Z TN24/09Z 
     BECMG 1620/1700 VRB04KT 9000-DZ FEW020 SCT070
       
TAF SVMG 161600Z 1618/1718 09010KT 9999 FEW016 TX34/19Z TN25/09Z 
     BECMG 1620/1700 07012KT 9999 FEW016 SCT020
       
TAF SVJC 160400Z 1606/1706 27019KT 9999 SCT016 TX35/19Z TN25/09Z 
     BECMG 1604/1608 27017KT 9999 FEW016
       
TAF SVSA 161600Z 1618/1718 27007KT 8000 -DZ BKN020 TX33/19Z TN23/08Z 
     BECMG 1620/1700 VRB02KT 9000 -DZ SCT070
       
TAF SVVA 161000Z 1612/1712 09002KT 9999 FEW016 TX34/1620Z TN21/2710Z 
     TEMPO 1614/1618 14003KTKT 9999 SCT016 
     TEMPO 1620/1700 20005KTKT 9999 SCT016 SCT100